Terminal Aerodrome Forecast
Issued by NWS

Home | Current Version | Previous Version | Text Only | Print | Product List | Glossary On
Versions: 1 2 3 4 5 6 7 8 9 10 11 12 13 14 15 16 17 18 19 20 21 22
000
FTUS43 KAPX 292340
TAFPLN
TAF
KPLN 292340Z 3000/3024 18005KT P6SM VCSH SCT040 OVC120
     FM300200 23004KT P6SM OVC040
     FM300400 27004KT 6SM BR VCSH OVC040
     FM300700 30006KT 3SM -SHRA BR OVC004
     FM301400 33012KT P6SM SCT012 BKN060
     FM301800 34015G21KT P6SM BKN150=

USA.gov is the U.S. government's official web portal to all federal, state and local government web resources and services.